Tucson, Arizona
Current Conditions -  °F | °C
As of 12:58 PM on Friday 28 Nov 2014 (Local Time) from KDMA Reporting Station
Clear Clear  
Wind Chill: 81°   Ceiling: Unl
Heat Index: 81°   Visibility: 10mi
Dew Point: 18°   Wind: 1mph
Humidity: 10%   Direction: 160°SSE
Pressure: 30.02"   Gusts: NA
Location:  32.22°N, 110.96°W
Report Text: KDMA 281958Z AUTO 16001KT 10SM CLR 27/M08 A3002 RMK AO2 SLP133 T02701076 $
Loading
Personal Weather Stations






























Interactive Weather Map New forecast layout! Learn more

10-Day Weather Forecast

Advertisements
Track Severe Weather on mobile